Portada
METAR-TAF:

METAR-TAF

Aeroports :

Nukus, Uzbekistan

latitud: 42-28-48N, longitud: 059-37-48E, altitud: 77 m

Observació

L'informe es va fer fa 21 minuts, a les 08:00 UTC
Vent 6 kt del Nord/Nord-Est
Temperatura 12°C
Humitat 20%
Pressió 1031 hPa
Visibilitat 10 km o més
sense núvols per sota de 1500 mi sense presència de cumulonimbus.

METAR: UTNN 120800Z 03006KT CAVOK 12/M10 Q1031 R33/CLRD60 NOSIG

Hora: 13:21 (08:21 UTC)

Pronòstic

L'informe es va fer fa 3 hores i 21 minuts, a les 05:00 UTC
Pronòstic vàlid del 12 a les 06 UTC al 13 a les 06 UTC
Vent 6 kt del Nord-Est amb ràfegues de 16 kt
Visibilitat 10 km o més
sense núvols per sota de 1500 mi sense presència de cumulonimbus.
Temporalment
l' 12 a les 18 UTC al 13 a les 02 UTC
Vent 4 kt amb direcció variable

TAF: UTNN 120500Z 1206/1306 04006G16KT CAVOK TEMPO 1218/1302 VRB04KT

Observacions i pronòstics meteorològics de més de 4000 aeroports (METAR i TAF).

Les estacions disponibles són els punts grocs i vermells al mapa.

Posi el ratolí al punt desitjat per veure el nom de l'estació.

Feu clic per veure les observacions i els pronòstics meteorològics.

Per canviar el mapa: feu clic els botons verds amb una creu de color negre per apropar; al botó verd amb un guió per allunyar la imatge; o en les fletxes verdes per a mapes adjacents.


METAR-TAF: